Time,TemperatureF,DewpointF,PressureIn,WindDirection,WindDirectionDegrees,WindSpeedMPH,WindSpeedGustMPH,Humidity,HourlyPrecipIn,Conditions,Clouds,dailyrainin,SoftwareType,DateUTC
2013-07-07 00:00:00,66.2,65.0,30.03,North,9,0.0,0.0,96,0.00,,---,0.00,VWS V14.01,2013-07-07 04:00:00,
2013-07-07 00:01:00,66.2,65.0,30.03,North,9,0.0,0.0,96,0.00,,---,0.00,VWS V14.01,2013-07-07 04:01:00,
2013-07-07 00:02:00,66.2,65.0,30.03,North,9,0.0,0.0,96,0.00,,---,0.00,VWS V14.01,2013-07-07 04:02:00,
2013-07-07 00:04:00,66.2,65.0,30.03,North,9,0.0,0.0,96,0.00,,---,0.00,VWS V14.01,2013-07-07 04:04:00,
2013-07-07 00:07:00,66.2,65.0,30.03,North,9,0.0,0.0,96,0.00,,---,0.00,VWS V14.01,2013-07-07 04:07:00,
2013-07-07 00:10:00,66.2,64.7,30.03,North,9,0.0,0.0,95,0.00,,---,0.00,VWS V14.01,2013-07-07 04:10:00,
2013-07-07 00:15:00,66.2,64.7,30.03,North,9,0.0,0.0,95,0.00,,---,0.00,VWS V14.01,2013-07-07 04:15:00,
2013-07-07 00:20:00,66.1,64.6,30.03,North,9,0.0,0.0,95,0.00,,---,0.00,VWS V14.01,2013-07-07 04:20:00,
2013-07-07 00:25:00,65.9,64.4,30.03,North,9,0.0,0.0,95,0.00,,---,0.00,VWS V14.01,2013-07-07 04:25:00,
2013-07-07 00:30:00,65.8,64.3,30.03,North,9,0.0,0.0,95,0.00,,---,0.00,VWS V14.01,2013-07-07 04:30:00,
2013-07-07 00:35:00,65.6,64.4,30.03,North,9,0.0,0.0,96,0.00,,---,0.00,VWS V14.01,2013-07-07 04:35:00,
2013-07-07 00:40:00,65.5,64.3,30.03,North,9,0.0,0.0,96,0.00,,---,0.00,VWS V14.01,2013-07-07 04:40:00,
2013-07-07 00:45:00,65.5,64.3,30.03,North,9,0.0,0.0,96,0.00,,---,0.00,VWS V14.01,2013-07-07 04:45:00,
2013-07-07 00:50:00,65.5,64.3,30.03,North,8,0.0,0.0,96,0.00,,---,0.00,VWS V14.01,2013-07-07 04:50:00,
2013-07-07 00:55:00,65.4,64.2,30.03,North,9,0.0,0.0,96,0.00,,---,0.00,VWS V14.01,2013-07-07 04:55:00,
2013-07-07 01:00:00,65.4,64.2,30.03,North,9,0.0,0.0,96,0.00,,---,0.00,VWS V14.01,2013-07-07 05:00:00,
2013-07-07 01:05:00,65.3,64.1,30.03,North,9,0.0,0.0,96,0.00,,---,0.00,VWS V14.01,2013-07-07 05:05:00,
2013-07-07 01:10:00,65.3,64.1,30.02,North,9,0.0,0.0,96,0.00,,---,0.00,VWS V14.01,2013-07-07 05:10:00,
2013-07-07 01:15:00,65.3,64.1,30.02,North,9,0.0,0.0,96,0.00,,---,0.00,VWS V14.01,2013-07-07 05:15:00,
2013-07-07 01:20:00,65.2,64.0,30.02,North,9,0.0,0.0,96,0.00,,---,0.00,VWS V14.01,2013-07-07 05:20:00,
2013-07-07 01:25:00,65.2,64.0,30.03,North,9,0.0,0.0,96,0.00,,---,0.00,VWS V14.01,2013-07-07 05:25:00,
2013-07-07 01:30:00,65.1,63.9,30.02,North,9,0.0,0.0,96,0.00,,---,0.00,VWS V14.01,2013-07-07 05:30:00,
2013-07-07 01:35:00,65.5,64.6,30.03,NW,314,0.0,1.0,97,0.00,,---,0.00,VWS V14.01,2013-07-07 05:35:00,
2013-07-07 01:40:00,66.4,65.2,30.02,WNW,301,1.0,1.0,96,0.00,,---,0.00,VWS V14.01,2013-07-07 05:40:00,
2013-07-07 01:45:00,67.1,65.6,30.02,WNW,290,1.0,2.0,95,0.00,,---,0.00,VWS V14.01,2013-07-07 05:45:00,
2013-07-07 01:50:00,67.8,65.7,30.02,WNW,300,1.0,2.0,93,0.00,,---,0.00,VWS V14.01,2013-07-07 05:50:00,
2013-07-07 01:55:00,68.4,66.0,30.02,WNW,292,0.0,2.0,92,0.00,,---,0.00,VWS V14.01,2013-07-07 05:55:00,
2013-07-07 02:00:00,68.7,66.3,30.02,WNW,291,2.0,2.0,92,0.00,,---,0.00,VWS V14.01,2013-07-07 06:00:00,
2013-07-07 02:05:00,69.1,66.4,30.02,West,280,1.0,2.0,91,0.00,,---,0.00,VWS V14.01,2013-07-07 06:05:00,
2013-07-07 02:11:00,69.5,66.4,30.02,West,281,1.0,1.0,90,0.00,,---,0.00,VWS V14.01,2013-07-07 06:11:00,
2013-07-07 02:16:00,69.8,66.4,30.02,WNW,297,1.0,2.0,89,0.00,,---,0.00,VWS V14.01,2013-07-07 06:16:00,
2013-07-07 02:21:00,70.0,66.6,30.02,WNW,288,1.0,2.0,89,0.00,,---,0.00,VWS V14.01,2013-07-07 06:21:00,
2013-07-07 02:26:00,70.1,66.7,30.02,WNW,290,1.0,2.0,89,0.00,,---,0.00,VWS V14.01,2013-07-07 06:26:00,
2013-07-07 02:31:00,70.1,66.7,30.02,WNW,300,1.0,1.0,89,0.00,,---,0.00,VWS V14.01,2013-07-07 06:31:00,
2013-07-07 02:36:00,70.1,66.7,30.02,WNW,300,1.0,2.0,89,0.00,,---,0.00,VWS V14.01,2013-07-07 06:36:00,
2013-07-07 02:41:00,70.3,66.9,30.01,NW,309,0.0,2.0,89,0.00,,---,0.00,VWS V14.01,2013-07-07 06:41:00,
2013-07-07 02:46:00,70.1,66.4,30.01,NW,309,0.0,0.0,88,0.00,,---,0.00,VWS V14.01,2013-07-07 06:46:00,
2013-07-07 02:51:00,69.6,66.2,30.01,NW,309,0.0,0.0,89,0.00,,---,0.00,VWS V14.01,2013-07-07 06:51:00,
2013-07-07 02:56:00,69.1,66.1,30.01,NW,309,0.0,0.0,90,0.00,,---,0.00,VWS V14.01,2013-07-07 06:56:00,
2013-07-07 03:01:00,68.9,66.2,30.01,NW,311,0.0,0.0,91,0.00,,---,0.00,VWS V14.01,2013-07-07 07:01:00,
2013-07-07 03:06:00,68.6,66.2,30.01,NW,311,0.0,0.0,92,0.00,,---,0.00,VWS V14.01,2013-07-07 07:06:00,
2013-07-07 03:11:00,68.4,66.0,30.01,NW,310,0.0,0.0,92,0.00,,---,0.00,VWS V14.01,2013-07-07 07:11:00,
2013-07-07 03:16:00,68.5,66.4,30.01,NW,311,0.0,1.0,93,0.00,,---,0.00,VWS V14.01,2013-07-07 07:16:00,
2013-07-07 03:21:00,68.8,66.4,30.01,NW,311,0.0,0.0,92,0.00,,---,0.00,VWS V14.01,2013-07-07 07:21:00,
2013-07-07 03:26:00,68.7,66.3,30.01,NW,310,0.0,0.0,92,0.00,,---,0.00,VWS V14.01,2013-07-07 07:26:00,
2013-07-07 03:31:00,68.5,66.1,30.00,NW,310,0.0,0.0,92,0.00,,---,0.00,VWS V14.01,2013-07-07 07:31:00,
2013-07-07 03:37:00,68.2,65.8,30.00,NW,310,0.0,0.0,92,0.00,,---,0.00,VWS V14.01,2013-07-07 07:37:00,
2013-07-07 03:42:00,68.1,66.0,30.01,NW,311,0.0,0.0,93,0.00,,---,0.00,VWS V14.01,2013-07-07 07:42:00,
2013-07-07 03:47:00,68.2,66.1,30.00,NW,310,0.0,0.0,93,0.00,,---,0.00,VWS V14.01,2013-07-07 07:47:00,
2013-07-07 03:52:00,68.2,66.1,30.00,NW,310,0.0,0.0,93,0.00,,---,0.00,VWS V14.01,2013-07-07 07:52:00,
2013-07-07 03:57:00,68.3,66.2,30.00,NW,310,0.0,0.0,93,0.00,,---,0.00,VWS V14.01,2013-07-07 07:57:00,
2013-07-07 04:02:00,68.3,66.2,30.00,NW,310,0.0,0.0,93,0.00,,---,0.00,VWS V14.01,2013-07-07 08:02:00,
2013-07-07 04:07:00,68.4,66.3,30.00,NW,310,0.0,0.0,93,0.00,,---,0.00,VWS V14.01,2013-07-07 08:07:00,
2013-07-07 04:12:00,68.5,66.4,30.00,NW,311,0.0,0.0,93,0.00,,---,0.00,VWS V14.01,2013-07-07 08:12:00,
2013-07-07 04:17:00,68.6,66.5,30.00,NW,310,0.0,0.0,93,0.00,,---,0.00,VWS V14.01,2013-07-07 08:17:00,
2013-07-07 04:22:00,69.1,67.0,30.00,NW,310,0.0,0.0,93,0.00,,---,0.00,VWS V14.01,2013-07-07 08:22:00,
2013-07-07 04:27:00,69.5,67.1,29.99,NW,311,0.0,0.0,92,0.00,,---,0.00,VWS V14.01,2013-07-07 08:27:00,
2013-07-07 04:32:00,69.5,66.8,30.00,NW,311,0.0,0.0,91,0.00,,---,0.00,VWS V14.01,2013-07-07 08:32:00,
2013-07-07 04:37:00,69.4,67.0,30.00,NW,311,0.0,0.0,92,0.00,,---,0.00,VWS V14.01,2013-07-07 08:37:00,
2013-07-07 04:42:00,69.2,66.8,30.00,SW,235,0.0,1.0,92,0.00,,---,0.00,VWS V14.01,2013-07-07 08:42:00,
2013-07-07 04:47:00,69.0,66.6,30.00,SW,235,0.0,0.0,92,0.00,,---,0.00,VWS V14.01,2013-07-07 08:47:00,
2013-07-07 04:52:00,68.8,66.4,30.00,SW,235,0.0,1.0,92,0.00,,---,0.00,VWS V14.01,2013-07-07 08:52:00,
2013-07-07 04:57:00,68.6,66.5,29.99,SW,235,0.0,0.0,93,0.00,,---,0.00,VWS V14.01,2013-07-07 08:57:00,
2013-07-07 05:02:00,68.6,66.5,29.99,SW,235,0.0,0.0,93,0.00,,---,0.00,VWS V14.01,2013-07-07 09:02:00,
2013-07-07 05:07:00,68.6,66.8,29.99,WSW,242,1.0,1.0,94,0.00,,---,0.00,VWS V14.01,2013-07-07 09:07:00,
2013-07-07 05:12:00,69.1,67.0,29.99,SW,226,0.0,1.0,93,0.00,,---,0.00,VWS V14.01,2013-07-07 09:12:00,
2013-07-07 05:17:00,69.4,67.3,29.99,SW,219,1.0,4.0,93,0.00,,---,0.00,VWS V14.01,2013-07-07 09:17:00,
2013-07-07 05:22:00,69.8,67.7,30.00,SSE,167,2.0,3.0,93,0.00,,---,0.00,VWS V14.01,2013-07-07 09:22:00,
2013-07-07 05:27:00,69.9,67.5,29.99,SW,218,0.0,2.0,92,0.00,,---,0.00,VWS V14.01,2013-07-07 09:27:00,
2013-07-07 05:32:00,69.7,67.3,29.99,South,171,0.0,1.0,92,0.00,,---,0.00,VWS V14.01,2013-07-07 09:32:00,
2013-07-07 05:37:00,69.6,67.2,29.99,WSW,249,1.0,2.0,92,0.00,,---,0.00,VWS V14.01,2013-07-07 09:37:00,
2013-07-07 05:42:00,69.3,67.2,30.00,WSW,257,0.0,1.0,93,0.00,,---,0.00,VWS V14.01,2013-07-07 09:42:00,
2013-07-07 05:47:00,69.0,66.9,30.00,West,260,0.0,1.0,93,0.00,,---,0.00,VWS V14.01,2013-07-07 09:47:00,
2013-07-07 05:52:00,68.8,66.7,30.00,SSW,212,0.0,1.0,93,0.00,,---,0.00,VWS V14.01,2013-07-07 09:52:00,
2013-07-07 05:57:00,68.7,66.6,30.00,SW,226,1.0,2.0,93,0.00,,---,0.00,VWS V14.01,2013-07-07 09:57:00,
2013-07-07 06:02:00,68.8,66.7,30.00,WSW,249,3.0,3.0,93,0.00,,---,0.00,VWS V14.01,2013-07-07 10:02:00,
2013-07-07 06:07:00,69.0,66.9,30.00,SW,218,1.0,3.0,93,0.00,,---,0.00,VWS V14.01,2013-07-07 10:07:00,
2013-07-07 06:12:00,69.3,66.9,30.00,West,280,1.0,2.0,92,0.00,,---,0.00,VWS V14.01,2013-07-07 10:12:00,
2013-07-07 06:17:00,69.4,67.0,30.00,WSW,240,2.0,2.0,92,0.00,,---,0.00,VWS V14.01,2013-07-07 10:17:00,
2013-07-07 06:22:00,69.4,67.0,30.00,West,276,1.0,3.0,92,0.00,,---,0.00,VWS V14.01,2013-07-07 10:22:00,
2013-07-07 06:27:00,69.6,67.5,30.00,WSW,239,0.0,2.0,93,0.00,,---,0.00,VWS V14.01,2013-07-07 10:27:00,
2013-07-07 06:32:00,69.8,67.7,30.00,South,170,2.0,3.0,93,0.00,,---,0.00,VWS V14.01,2013-07-07 10:32:00,
2013-07-07 06:37:00,70.0,67.6,30.00,SSW,211,0.0,2.0,92,0.00,,---,0.00,VWS V14.01,2013-07-07 10:37:00,
2013-07-07 06:42:00,70.1,67.7,30.00,West,281,1.0,2.0,92,0.00,,---,0.00,VWS V14.01,2013-07-07 10:42:00,
2013-07-07 06:47:00,70.2,67.8,30.00,SSW,196,1.0,1.0,92,0.00,,---,0.00,VWS V14.01,2013-07-07 10:47:00,
2013-07-07 06:52:00,70.8,68.4,30.00,South,190,1.0,2.0,92,0.00,,---,0.00,VWS V14.01,2013-07-07 10:52:00,
2013-07-07 06:57:00,71.6,68.5,30.00,South,171,1.0,4.0,90,0.00,,---,0.00,VWS V14.01,2013-07-07 10:57:00,
2013-07-07 07:03:00,72.2,68.8,30.00,SW,218,3.0,4.0,89,0.00,,---,0.00,VWS V14.01,2013-07-07 11:03:00,
2013-07-07 07:08:00,72.8,69.4,30.00,SSW,212,0.0,3.0,89,0.00,,---,0.00,VWS V14.01,2013-07-07 11:08:00,
2013-07-07 07:13:00,73.3,69.2,30.00,SW,225,1.0,2.0,87,0.00,,---,0.00,VWS V14.01,2013-07-07 11:13:00,
2013-07-07 07:18:00,73.7,69.3,30.00,SW,214,1.0,3.0,86,0.00,,---,0.00,VWS V14.01,2013-07-07 11:18:00,
2013-07-07 07:23:00,73.7,69.6,30.00,SW,228,1.0,3.0,87,0.00,,---,0.00,VWS V14.01,2013-07-07 11:23:00,
2013-07-07 07:28:00,73.5,68.7,30.01,SW,231,1.0,3.0,85,0.00,,---,0.00,VWS V14.01,2013-07-07 11:28:00,
2013-07-07 07:34:00,73.3,68.9,30.01,West,262,1.0,3.0,86,0.00,,---,0.00,VWS V14.01,2013-07-07 11:34:00,
2013-07-07 07:39:00,73.0,68.2,30.00,WSW,252,1.0,3.0,85,0.00,,---,0.00,VWS V14.01,2013-07-07 11:39:00,
2013-07-07 07:45:00,72.8,68.0,30.00,WSW,255,1.0,2.0,85,0.00,,---,0.00,VWS V14.01,2013-07-07 11:45:00,
2013-07-07 07:50:00,72.8,68.4,30.00,SW,235,0.0,1.0,86,0.00,,---,0.00,VWS V14.01,2013-07-07 11:50:00,
2013-07-07 07:55:00,72.7,68.6,30.00,SW,235,0.0,0.0,87,0.00,,---,0.00,VWS V14.01,2013-07-07 11:55:00,
2013-07-07 08:00:00,72.6,68.5,30.00,SW,235,0.0,0.0,87,0.00,,---,0.00,VWS V14.01,2013-07-07 12:00:00,
2013-07-07 08:06:00,72.6,68.8,30.00,SW,235,0.0,0.0,88,0.00,,---,0.00,VWS V14.01,2013-07-07 12:06:00,
2013-07-07 08:11:00,72.5,69.1,30.00,SW,235,0.0,1.0,89,0.00,,---,0.00,VWS V14.01,2013-07-07 12:11:00,
2013-07-07 08:16:00,72.4,69.3,30.00,WNW,288,1.0,1.0,90,0.00,,---,0.00,VWS V14.01,2013-07-07 12:16:00,
2013-07-07 08:21:00,71.4,68.3,30.01,NW,322,5.0,17.0,90,0.00,,---,0.00,VWS V14.01,2013-07-07 12:21:00,
2013-07-07 08:27:00,70.4,68.0,30.02,WNW,290,5.0,8.0,92,0.02,,---,0.02,VWS V14.01,2013-07-07 12:27:00,
2013-07-07 08:32:00,69.9,67.8,30.01,North,11,5.0,6.0,93,0.03,,---,0.03,VWS V14.01,2013-07-07 12:32:00,
2013-07-07 08:38:00,69.6,67.8,30.01,NW,316,1.0,6.0,94,0.04,,---,0.04,VWS V14.01,2013-07-07 12:38:00,
2013-07-07 08:43:00,69.5,68.0,30.00,NW,318,2.0,4.0,95,0.04,,---,0.04,VWS V14.01,2013-07-07 12:43:00,
2013-07-07 08:48:00,69.7,68.2,30.00,West,280,2.0,4.0,95,0.04,,---,0.04,VWS V14.01,2013-07-07 12:48:00,
2013-07-07 08:54:00,69.7,68.2,30.00,West,274,0.0,3.0,95,0.04,,---,0.04,VWS V14.01,2013-07-07 12:54:00,
2013-07-07 08:59:00,69.9,68.7,30.00,West,259,1.0,2.0,96,0.04,,---,0.04,VWS V14.01,2013-07-07 12:59:00,
2013-07-07 09:05:00,70.2,68.7,30.00,WNW,292,1.0,2.0,95,0.04,,---,0.04,VWS V14.01,2013-07-07 13:05:00,
2013-07-07 09:10:00,70.7,69.5,30.00,NW,316,4.0,5.0,96,0.04,,---,0.04,VWS V14.01,2013-07-07 13:10:00,
2013-07-07 09:15:00,71.5,70.3,30.00,West,274,2.0,4.0,96,0.04,,---,0.04,VWS V14.01,2013-07-07 13:15:00,
2013-07-07 09:20:00,72.2,70.4,30.00,WNW,296,6.0,6.0,94,0.04,,---,0.04,VWS V14.01,2013-07-07 13:20:00,
2013-07-07 09:25:00,73.2,71.4,30.00,West,276,4.0,6.0,94,0.03,,---,0.04,VWS V14.01,2013-07-07 13:25:00,
2013-07-07 09:30:00,73.8,70.7,30.00,WNW,298,3.0,5.0,90,0.01,,---,0.04,VWS V14.01,2013-07-07 13:30:00,
2013-07-07 09:35:00,73.9,70.1,30.00,West,260,2.0,6.0,88,0.01,,---,0.04,VWS V14.01,2013-07-07 13:35:00,
2013-07-07 09:40:00,74.2,70.8,30.00,WSW,250,5.0,5.0,89,0.00,,---,0.04,VWS V14.01,2013-07-07 13:40:00,
2013-07-07 09:45:00,74.3,70.8,30.00,WNW,288,5.0,7.0,89,0.00,,---,0.04,VWS V14.01,2013-07-07 13:45:00,
2013-07-07 09:50:00,74.6,70.8,30.00,West,269,4.0,7.0,88,0.00,,---,0.04,VWS V14.01,2013-07-07 13:50:00,
2013-07-07 09:55:00,75.0,70.9,30.00,West,260,5.0,8.0,87,0.00,,---,0.04,VWS V14.01,2013-07-07 13:55:00,
2013-07-07 10:00:00,75.7,71.6,30.00,WNW,302,3.0,6.0,87,0.00,,---,0.04,VWS V14.01,2013-07-07 14:00:00,
2013-07-07 10:06:00,76.3,71.8,29.99,NW,312,3.0,8.0,86,0.00,,---,0.04,VWS V14.01,2013-07-07 14:06:00,
2013-07-07 10:11:00,76.5,71.7,29.99,NW,311,3.0,7.0,85,0.00,,---,0.04,VWS V14.01,2013-07-07 14:11:00,
2013-07-07 10:16:00,77.2,72.7,29.99,SW,226,3.0,5.0,86,0.00,,---,0.04,VWS V14.01,2013-07-07 14:16:00,
2013-07-07 10:21:00,77.7,72.1,29.99,SW,221,3.0,8.0,83,0.00,,---,0.04,VWS V14.01,2013-07-07 14:21:00,
2013-07-07 10:26:00,78.4,72.8,29.99,West,263,5.0,5.0,83,0.00,,---,0.04,VWS V14.01,2013-07-07 14:26:00,
2013-07-07 10:31:00,78.8,73.2,29.99,West,276,3.0,6.0,83,0.00,,---,0.04,VWS V14.01,2013-07-07 14:31:00,
2013-07-07 10:37:00,79.1,72.4,29.99,NW,304,2.0,6.0,80,0.00,,---,0.04,VWS V14.01,2013-07-07 14:37:00,
2013-07-07 10:42:00,79.3,71.8,29.99,WSW,255,3.0,8.0,78,0.00,,---,0.04,VWS V14.01,2013-07-07 14:42:00,
2013-07-07 10:47:00,79.7,71.9,29.98,WSW,246,1.0,5.0,77,0.00,,---,0.04,VWS V14.01,2013-07-07 14:47:00,
2013-07-07 10:53:00,80.1,72.6,29.98,WNW,301,3.0,5.0,78,0.00,,---,0.04,VWS V14.01,2013-07-07 14:53:00,
2013-07-07 10:58:00,80.2,71.9,29.98,West,278,2.0,6.0,76,0.00,,---,0.04,VWS V14.01,2013-07-07 14:58:00,
2013-07-07 11:03:00,80.2,72.3,29.98,NW,318,5.0,7.0,77,0.00,,---,0.04,VWS V14.01,2013-07-07 15:03:00,
2013-07-07 11:10:00,80.0,72.5,29.98,WSW,256,2.0,5.0,78,0.00,,---,0.04,VWS V14.01,2013-07-07 15:10:00,
2013-07-07 11:15:00,79.9,73.6,29.98,West,277,2.0,5.0,81,0.00,,---,0.04,VWS V14.01,2013-07-07 15:15:00,
2013-07-07 11:20:00,80.2,72.3,29.98,WNW,298,5.0,6.0,77,0.00,,---,0.04,VWS V14.01,2013-07-07 15:20:00,
2013-07-07 11:25:00,80.8,73.3,29.98,WNW,292,5.0,7.0,78,0.00,,---,0.04,VWS V14.01,2013-07-07 15:25:00,
2013-07-07 11:30:00,80.7,72.4,29.98,WNW,302,4.0,7.0,76,0.00,,---,0.04,VWS V14.01,2013-07-07 15:30:00,
2013-07-07 11:35:00,80.3,72.4,29.98,West,271,3.0,10.0,77,0.00,,---,0.04,VWS V14.01,2013-07-07 15:35:00,
2013-07-07 11:40:00,80.4,73.3,29.97,NW,309,6.0,8.0,79,0.00,,---,0.04,VWS V14.01,2013-07-07 15:40:00,
2013-07-07 11:45:00,80.8,72.1,29.97,WNW,294,5.0,9.0,75,0.00,,---,0.04,VWS V14.01,2013-07-07 15:45:00,
2013-07-07 11:50:00,81.0,71.5,29.97,WNW,290,3.0,9.0,73,0.00,,---,0.04,VWS V14.01,2013-07-07 15:50:00,
2013-07-07 11:56:00,81.5,73.2,29.97,WSW,250,3.0,6.0,76,0.00,,---,0.04,VWS V14.01,2013-07-07 15:56:00,
2013-07-07 12:01:00,82.2,73.9,29.97,West,281,0.0,6.0,76,0.00,,---,0.04,VWS V14.01,2013-07-07 16:01:00,
2013-07-07 12:07:00,82.6,73.1,29.97,NNE,13,2.0,4.0,73,0.00,,---,0.04,VWS V14.01,2013-07-07 16:07:00,
2013-07-07 12:12:00,81.8,73.1,29.97,NW,316,3.0,5.0,75,0.00,,---,0.04,VWS V14.01,2013-07-07 16:12:00,
2013-07-07 12:18:00,81.7,72.6,29.96,NW,316,5.0,7.0,74,0.00,,---,0.04,VWS V14.01,2013-07-07 16:18:00,
2013-07-07 12:20:00,81.4,71.9,29.96,West,273,1.0,7.0,73,0.00,,---,0.04,VWS V14.01,2013-07-07 16:20:00,
2013-07-07 12:26:00,80.9,71.8,29.96,WNW,300,4.0,6.0,74,0.00,,---,0.04,VWS V14.01,2013-07-07 16:26:00,
2013-07-07 12:31:00,81.4,73.1,29.96,NNE,33,3.0,6.0,76,0.00,,---,0.04,VWS V14.01,2013-07-07 16:31:00,
2013-07-07 12:37:00,82.2,74.3,29.96,WNW,300,4.0,7.0,77,0.00,,---,0.04,VWS V14.01,2013-07-07 16:37:00,
2013-07-07 12:42:00,82.7,73.6,29.96,West,264,6.0,8.0,74,0.00,,---,0.04,VWS V14.01,2013-07-07 16:42:00,
2013-07-07 12:48:00,82.9,71.7,29.96,West,273,2.0,8.0,69,0.00,,---,0.04,VWS V14.01,2013-07-07 16:48:00,
2013-07-07 12:53:00,82.8,71.2,29.95,NW,316,6.0,9.0,68,0.00,,---,0.04,VWS V14.01,2013-07-07 16:53:00,
2013-07-07 12:58:00,83.0,73.5,29.95,North,360,6.0,9.0,73,0.00,,---,0.04,VWS V14.01,2013-07-07 16:58:00,
2013-07-07 13:03:00,83.0,72.6,29.95,WNW,286,8.0,8.0,71,0.00,,---,0.04,VWS V14.01,2013-07-07 17:03:00,
2013-07-07 13:08:00,82.9,72.9,29.95,West,280,3.0,8.0,72,0.00,,---,0.04,VWS V14.01,2013-07-07 17:08:00,
2013-07-07 13:14:00,82.7,71.9,29.94,WSW,248,2.0,5.0,70,0.00,,---,0.04,VWS V14.01,2013-07-07 17:14:00,
2013-07-07 13:19:00,83.0,73.1,29.94,WNW,291,2.0,5.0,72,0.00,,---,0.04,VWS V14.01,2013-07-07 17:19:00,
2013-07-07 13:24:00,83.0,70.9,29.94,WNW,286,9.0,9.0,67,0.00,,---,0.04,VWS V14.01,2013-07-07 17:24:00,
2013-07-07 13:31:00,82.4,72.1,29.94,NW,315,3.0,9.0,71,0.00,,---,0.04,VWS V14.01,2013-07-07 17:31:00,
2013-07-07 13:36:00,82.0,72.5,29.94,WNW,293,2.0,11.0,73,0.00,,---,0.04,VWS V14.01,2013-07-07 17:36:00,
2013-07-07 13:41:00,83.0,71.8,29.94,SSW,210,3.0,6.0,69,0.00,,---,0.04,VWS V14.01,2013-07-07 17:41:00,
2013-07-07 13:46:00,83.8,72.6,29.94,West,276,4.0,7.0,69,0.00,,---,0.04,VWS V14.01,2013-07-07 17:46:00,
2013-07-07 13:52:00,84.3,71.7,29.93,WNW,300,7.0,8.0,66,0.00,,---,0.04,VWS V14.01,2013-07-07 17:52:00,
2013-07-07 13:57:00,84.6,73.3,29.93,NW,304,3.0,8.0,69,0.00,,---,0.04,VWS V14.01,2013-07-07 17:57:00,
2013-07-07 14:03:00,84.6,72.9,29.92,NW,314,4.0,8.0,68,0.00,,---,0.04,VWS V14.01,2013-07-07 18:03:00,
2013-07-07 14:08:00,84.9,73.2,29.92,WSW,253,0.0,7.0,68,0.00,,---,0.04,VWS V14.01,2013-07-07 18:08:00,
2013-07-07 14:14:00,83.7,74.9,29.92,ESE,115,2.0,10.0,75,0.00,,---,0.04,VWS V14.01,2013-07-07 18:14:00,
2013-07-07 14:19:00,82.8,76.4,29.92,East,89,2.0,6.0,81,0.00,,---,0.04,VWS V14.01,2013-07-07 18:19:00,
2013-07-07 14:25:00,82.1,75.3,29.93,ESE,116,2.0,5.0,80,0.00,,---,0.04,VWS V14.01,2013-07-07 18:25:00,
2013-07-07 14:30:00,81.7,74.6,29.92,East,91,2.0,4.0,79,0.00,,---,0.04,VWS V14.01,2013-07-07 18:30:00,
2013-07-07 14:35:00,81.3,75.3,29.92,ESE,122,3.0,5.0,82,0.00,,---,0.04,VWS V14.01,2013-07-07 18:35:00,
2013-07-07 14:40:00,81.0,75.0,29.91,NE,37,2.0,7.0,82,0.00,,---,0.04,VWS V14.01,2013-07-07 18:40:00,
2013-07-07 14:46:00,80.3,74.7,29.91,East,101,2.0,7.0,83,0.00,,---,0.04,VWS V14.01,2013-07-07 18:46:00,
2013-07-07 14:51:00,79.6,74.3,29.91,SE,129,2.0,10.0,84,0.00,,---,0.04,VWS V14.01,2013-07-07 18:51:00,
2013-07-07 14:57:00,79.4,74.8,29.92,ESE,120,2.0,6.0,86,0.00,,---,0.04,VWS V14.01,2013-07-07 18:57:00,
2013-07-07 15:02:00,79.7,74.4,29.91,ESE,105,3.0,6.0,84,0.00,,---,0.04,VWS V14.01,2013-07-07 19:02:00,
2013-07-07 15:07:00,79.8,74.5,29.91,East,94,4.0,6.0,84,0.00,,---,0.04,VWS V14.01,2013-07-07 19:07:00,
2013-07-07 15:12:00,80.0,74.7,29.91,ESE,103,2.0,4.0,84,0.00,,---,0.04,VWS V14.01,2013-07-07 19:12:00,
2013-07-07 15:18:00,80.3,74.7,29.90,ESE,108,4.0,5.0,83,0.00,,---,0.04,VWS V14.01,2013-07-07 19:18:00,
2013-07-07 15:23:00,80.4,74.8,29.90,East,95,6.0,6.0,83,0.00,,---,0.04,VWS V14.01,2013-07-07 19:23:00,
2013-07-07 15:30:00,80.0,74.7,29.90,SE,127,4.0,6.0,84,0.00,,---,0.04,VWS V14.01,2013-07-07 19:30:00,
2013-07-07 15:35:00,79.7,74.4,29.90,East,99,4.0,5.0,84,0.00,,---,0.04,VWS V14.01,2013-07-07 19:35:00,
2013-07-07 15:40:00,80.9,76.3,29.90,SSE,150,5.0,6.0,86,0.00,,---,0.04,VWS V14.01,2013-07-07 19:40:00,
2013-07-07 15:45:00,81.2,75.6,29.90,SE,142,3.0,7.0,83,0.00,,---,0.04,VWS V14.01,2013-07-07 19:45:00,
2013-07-07 15:51:00,80.3,74.7,29.90,SE,141,5.0,8.0,83,0.00,,---,0.04,VWS V14.01,2013-07-07 19:51:00,
2013-07-07 15:56:00,80.0,75.1,29.91,East,101,4.0,6.0,85,0.00,,---,0.04,VWS V14.01,2013-07-07 19:56:00,
2013-07-07 16:01:00,80.6,75.7,29.90,SE,131,4.0,7.0,85,0.00,,---,0.04,VWS V14.01,2013-07-07 20:01:00,
2013-07-07 16:06:00,80.8,75.2,29.90,SE,143,6.0,8.0,83,0.00,,---,0.04,VWS V14.01,2013-07-07 20:06:00,
2013-07-07 16:12:00,80.8,74.8,29.90,SE,124,11.0,15.0,82,0.00,,---,0.04,VWS V14.01,2013-07-07 20:12:00,
2013-07-07 16:17:00,79.5,73.5,29.90,South,173,6.0,12.0,82,0.00,,---,0.04,VWS V14.01,2013-07-07 20:17:00,
2013-07-07 16:22:00,78.3,72.7,29.90,ESE,122,6.0,10.0,83,0.00,,---,0.04,VWS V14.01,2013-07-07 20:22:00,
2013-07-07 16:28:00,77.7,72.8,29.90,SE,146,9.0,11.0,85,0.00,,---,0.04,VWS V14.01,2013-07-07 20:28:00,
2013-07-07 16:33:00,78.2,74.0,29.90,SE,137,6.0,10.0,87,0.00,,---,0.04,VWS V14.01,2013-07-07 20:33:00,
2013-07-07 16:38:00,78.5,72.6,29.90,SSE,155,9.0,12.0,82,0.00,,---,0.04,VWS V14.01,2013-07-07 20:38:00,
2013-07-07 16:43:00,77.6,72.4,29.89,South,189,3.0,13.0,84,0.00,,---,0.04,VWS V14.01,2013-07-07 20:43:00,
2013-07-07 16:48:00,77.1,72.2,29.89,SSE,157,7.0,9.0,85,0.00,,---,0.04,VWS V14.01,2013-07-07 20:48:00,
2013-07-07 16:54:00,76.7,72.2,29.89,SSE,168,4.0,7.0,86,0.00,,---,0.04,VWS V14.01,2013-07-07 20:54:00,
2013-07-07 16:59:00,76.5,72.0,29.89,SSE,165,3.0,8.0,86,0.00,,---,0.04,VWS V14.01,2013-07-07 20:59:00,
2013-07-07 17:04:00,76.7,72.2,29.89,SW,217,4.0,8.0,86,0.00,,---,0.04,VWS V14.01,2013-07-07 21:04:00,
2013-07-07 17:09:00,77.3,72.8,29.89,SSW,208,7.0,7.0,86,0.00,,---,0.04,VWS V14.01,2013-07-07 21:09:00,
2013-07-07 17:14:00,78.4,73.2,29.88,SW,224,9.0,9.0,84,0.00,,---,0.04,VWS V14.01,2013-07-07 21:14:00,
2013-07-07 17:19:00,78.9,72.9,29.88,SE,136,4.0,11.0,82,0.00,,---,0.04,VWS V14.01,2013-07-07 21:19:00,
2013-07-07 17:24:00,79.1,72.8,29.89,SSW,204,4.0,9.0,81,0.00,,---,0.04,VWS V14.01,2013-07-07 21:24:00,
2013-07-07 17:29:00,79.6,73.6,29.89,SSW,198,3.0,5.0,82,0.00,,---,0.04,VWS V14.01,2013-07-07 21:29:00,
2013-07-07 17:34:00,80.6,73.9,29.89,WSW,247,1.0,4.0,80,0.00,,---,0.04,VWS V14.01,2013-07-07 21:34:00,
2013-07-07 17:39:00,81.1,74.3,29.89,South,179,2.0,5.0,80,0.00,,---,0.04,VWS V14.01,2013-07-07 21:39:00,
2013-07-07 17:45:00,81.2,73.3,29.89,SSW,204,0.0,4.0,77,0.00,,---,0.04,VWS V14.01,2013-07-07 21:45:00,
2013-07-07 17:50:00,80.7,73.2,29.88,ESE,104,1.0,2.0,78,0.00,,---,0.04,VWS V14.01,2013-07-07 21:50:00,
2013-07-07 17:55:00,79.5,73.2,29.88,NNE,29,2.0,6.0,81,0.00,,---,0.04,VWS V14.01,2013-07-07 21:55:00,
2013-07-07 18:00:00,78.1,72.9,29.88,North,349,2.0,3.0,84,0.00,,---,0.04,VWS V14.01,2013-07-07 22:00:00,
2013-07-07 18:05:00,77.5,73.0,29.89,ENE,58,1.0,2.0,86,0.02,,---,0.06,VWS V14.01,2013-07-07 22:05:00,
2013-07-07 18:10:00,76.9,72.7,29.88,SE,136,3.0,3.0,87,0.02,,---,0.06,VWS V14.01,2013-07-07 22:10:00,
2013-07-07 18:15:00,76.4,72.6,29.88,East,98,1.0,3.0,88,0.03,,---,0.07,VWS V14.01,2013-07-07 22:15:00,
2013-07-07 18:21:00,76.2,73.1,29.87,ESE,120,2.0,3.0,90,0.03,,---,0.07,VWS V14.01,2013-07-07 22:21:00,
2013-07-07 18:26:00,76.0,73.5,29.88,ESE,117,2.0,2.0,92,0.03,,---,0.07,VWS V14.01,2013-07-07 22:26:00,
2013-07-07 18:32:00,75.4,72.9,29.88,East,94,2.0,6.0,92,0.03,,---,0.07,VWS V14.01,2013-07-07 22:32:00,
2013-07-07 18:37:00,75.1,72.6,29.88,ESE,112,4.0,4.0,92,0.03,,---,0.07,VWS V14.01,2013-07-07 22:37:00,
2013-07-07 18:43:00,74.7,72.2,29.88,ESE,120,2.0,4.0,92,0.03,,---,0.07,VWS V14.01,2013-07-07 22:43:00,
2013-07-07 18:48:00,74.5,72.0,29.89,SW,215,2.0,3.0,92,0.03,,---,0.07,VWS V14.01,2013-07-07 22:48:00,
2013-07-07 18:53:00,74.4,72.2,29.90,NNW,332,6.0,6.0,93,0.03,,---,0.07,VWS V14.01,2013-07-07 22:53:00,
2013-07-07 19:00:00,73.7,71.2,29.90,NW,326,4.0,8.0,92,0.03,,---,0.07,VWS V14.01,2013-07-07 23:00:00,
2013-07-07 19:05:00,73.3,70.8,29.91,WNW,297,1.0,6.0,92,0.02,,---,0.07,VWS V14.01,2013-07-07 23:05:00,
2013-07-07 19:10:00,73.1,70.6,29.91,NNE,33,4.0,4.0,92,0.01,,---,0.07,VWS V14.01,2013-07-07 23:10:00,
2013-07-07 19:16:00,72.5,69.4,29.91,NW,318,2.0,5.0,90,0.00,,---,0.07,VWS V14.01,2013-07-07 23:16:00,
2013-07-07 19:21:00,72.0,69.2,29.91,NNW,342,1.0,4.0,91,0.00,,---,0.07,VWS V14.01,2013-07-07 23:21:00,
2013-07-07 19:26:00,71.5,68.4,29.90,NW,323,2.0,7.0,90,0.00,,---,0.07,VWS V14.01,2013-07-07 23:26:00,
2013-07-07 19:31:00,71.0,68.2,29.91,WNW,290,3.0,5.0,91,0.00,,---,0.07,VWS V14.01,2013-07-07 23:31:00,
2013-07-07 19:37:00,70.5,68.1,29.91,WNW,298,6.0,10.0,92,0.00,,---,0.07,VWS V14.01,2013-07-07 23:37:00,
2013-07-07 19:42:00,69.9,67.5,29.92,NNW,329,5.0,8.0,92,0.00,,---,0.07,VWS V14.01,2013-07-07 23:42:00,
2013-07-07 19:47:00,69.5,67.4,29.92,NW,314,3.0,6.0,93,0.00,,---,0.07,VWS V14.01,2013-07-07 23:47:00,
2013-07-07 19:53:00,69.2,67.1,29.91,NW,323,2.0,4.0,93,0.00,,---,0.07,VWS V14.01,2013-07-07 23:53:00,
2013-07-07 19:58:00,69.0,67.2,29.91,NW,311,3.0,5.0,94,0.00,,---,0.07,VWS V14.01,2013-07-07 23:58:00,
2013-07-07 20:04:00,68.9,67.1,29.91,WNW,293,0.0,3.0,94,0.00,,---,0.07,VWS V14.01,2013-07-08 00:04:00,
2013-07-07 20:09:00,68.8,67.0,29.91,WNW,292,0.0,0.0,94,0.00,,---,0.07,VWS V14.01,2013-07-08 00:09:00,
2013-07-07 20:14:00,68.8,67.3,29.91,WNW,293,1.0,1.0,95,0.00,,---,0.07,VWS V14.01,2013-07-08 00:14:00,
2013-07-07 20:19:00,68.7,67.2,29.91,WNW,292,0.0,1.0,95,0.00,,---,0.07,VWS V14.01,2013-07-08 00:19:00,
2013-07-07 20:24:00,68.6,67.1,29.91,WNW,293,0.0,0.0,95,0.00,,---,0.07,VWS V14.01,2013-07-08 00:24:00,
2013-07-07 20:29:00,68.6,67.1,29.91,WNW,292,0.0,0.0,95,0.00,,---,0.07,VWS V14.01,2013-07-08 00:29:00,
2013-07-07 20:34:00,68.3,66.8,29.91,WNW,291,4.0,6.0,95,0.00,,---,0.07,VWS V14.01,2013-07-08 00:34:00,
2013-07-07 20:39:00,68.3,66.8,29.91,WNW,295,1.0,5.0,95,0.00,,---,0.07,VWS V14.01,2013-07-08 00:39:00,
2013-07-07 20:44:00,68.2,66.7,29.91,WNW,295,0.0,2.0,95,0.00,,---,0.07,VWS V14.01,2013-07-08 00:44:00,
2013-07-07 20:49:00,68.1,66.6,29.91,WNW,295,0.0,0.0,95,0.00,,---,0.07,VWS V14.01,2013-07-08 00:49:00,
2013-07-07 20:54:00,68.1,66.6,29.91,WNW,295,0.0,0.0,95,0.00,,---,0.07,VWS V14.01,2013-07-08 00:54:00,
2013-07-07 20:59:00,68.0,66.8,29.91,WNW,295,0.0,0.0,96,0.00,,---,0.07,VWS V14.01,2013-07-08 00:59:00,
2013-07-07 21:05:00,68.1,66.9,29.91,WNW,302,1.0,1.0,96,0.00,,---,0.07,VWS V14.01,2013-07-08 01:05:00,
2013-07-07 21:10:00,68.0,66.8,29.91,WNW,302,1.0,1.0,96,0.00,,---,0.07,VWS V14.01,2013-07-08 01:10:00,
2013-07-07 21:15:00,67.9,66.7,29.91,WNW,302,0.0,1.0,96,0.00,,---,0.07,VWS V14.01,2013-07-08 01:15:00,
2013-07-07 21:20:00,67.8,66.6,29.91,NW,318,0.0,1.0,96,0.00,,---,0.07,VWS V14.01,2013-07-08 01:20:00,
2013-07-07 21:25:00,67.7,66.5,29.91,NW,318,0.0,1.0,96,0.00,,---,0.07,VWS V14.01,2013-07-08 01:25:00,
2013-07-07 21:30:00,67.7,66.5,29.90,North,356,0.0,1.0,96,0.00,,---,0.07,VWS V14.01,2013-07-08 01:30:00,
2013-07-07 21:35:00,67.9,67.0,29.90,North,11,0.0,2.0,97,0.00,,---,0.07,VWS V14.01,2013-07-08 01:35:00,
2013-07-07 21:41:00,68.1,66.9,29.91,SW,236,0.0,2.0,96,0.00,,---,0.07,VWS V14.01,2013-07-08 01:41:00,
2013-07-07 21:46:00,68.1,66.9,29.91,SW,236,0.0,0.0,96,0.00,,---,0.07,VWS V14.01,2013-07-08 01:46:00,
2013-07-07 21:51:00,68.1,66.9,29.91,SW,236,0.0,1.0,96,0.00,,---,0.07,VWS V14.01,2013-07-08 01:51:00,
2013-07-07 21:56:00,67.9,66.7,29.92,SW,236,0.0,0.0,96,0.00,,---,0.07,VWS V14.01,2013-07-08 01:56:00,
2013-07-07 22:01:00,67.9,66.7,29.92,SW,236,0.0,1.0,96,0.00,,---,0.07,VWS V14.01,2013-07-08 02:01:00,
2013-07-07 22:07:00,68.0,66.8,29.92,SW,236,0.0,0.0,96,0.00,,---,0.07,VWS V14.01,2013-07-08 02:07:00,
2013-07-07 22:12:00,67.9,66.7,29.92,WSW,238,0.0,0.0,96,0.00,,---,0.07,VWS V14.01,2013-07-08 02:12:00,
2013-07-07 22:17:00,67.7,66.5,29.92,WSW,258,1.0,1.0,96,0.00,,---,0.07,VWS V14.01,2013-07-08 02:17:00,
2013-07-07 22:22:00,67.6,66.4,29.91,WSW,258,0.0,1.0,96,0.00,,---,0.07,VWS V14.01,2013-07-08 02:22:00,
2013-07-07 22:27:00,67.7,66.8,29.91,West,259,0.0,0.0,97,0.00,,---,0.07,VWS V14.01,2013-07-08 02:27:00,
2013-07-07 22:33:00,67.9,67.0,29.91,West,259,0.0,0.0,97,0.00,,---,0.07,VWS V14.01,2013-07-08 02:33:00,
2013-07-07 22:38:00,68.0,67.1,29.92,WSW,258,0.0,0.0,97,0.00,,---,0.07,VWS V14.01,2013-07-08 02:38:00,
2013-07-07 22:43:00,67.9,67.0,29.92,West,277,1.0,1.0,97,0.00,,---,0.07,VWS V14.01,2013-07-08 02:43:00,
2013-07-07 22:48:00,68.0,67.1,29.92,WNW,288,2.0,3.0,97,0.00,,---,0.07,VWS V14.01,2013-07-08 02:48:00,
2013-07-07 22:53:00,68.3,67.4,29.92,NW,314,1.0,2.0,97,0.00,,---,0.07,VWS V14.01,2013-07-08 02:53:00,
2013-07-07 22:58:00,68.5,67.6,29.92,NW,307,2.0,3.0,97,0.00,,---,0.07,VWS V14.01,2013-07-08 02:58:00,
2013-07-07 23:03:00,68.5,67.6,29.92,WNW,300,2.0,3.0,97,0.00,,---,0.07,VWS V14.01,2013-07-08 03:03:00,
2013-07-07 23:08:00,68.6,67.4,29.92,WNW,294,0.0,3.0,96,0.00,,---,0.07,VWS V14.01,2013-07-08 03:08:00,
2013-07-07 23:13:00,68.6,67.4,29.91,WNW,292,1.0,2.0,96,0.00,,---,0.07,VWS V14.01,2013-07-08 03:13:00,
2013-07-07 23:18:00,68.7,67.5,29.91,NW,305,0.0,2.0,96,0.00,,---,0.07,VWS V14.01,2013-07-08 03:18:00,
2013-07-07 23:23:00,68.7,67.5,29.91,NW,305,1.0,1.0,96,0.00,,---,0.07,VWS V14.01,2013-07-08 03:23:00,
2013-07-07 23:28:00,68.5,67.3,29.91,NW,312,1.0,2.0,96,0.00,,---,0.07,VWS V14.01,2013-07-08 03:28:00,
2013-07-07 23:33:00,68.4,67.2,29.91,WNW,286,0.0,2.0,96,0.00,,---,0.07,VWS V14.01,2013-07-08 03:33:00,
2013-07-07 23:38:00,68.5,67.3,29.91,NW,310,0.0,2.0,96,0.00,,---,0.07,VWS V14.01,2013-07-08 03:38:00,
2013-07-07 23:43:00,68.7,67.5,29.91,North,11,0.0,2.0,96,0.00,,---,0.07,VWS V14.01,2013-07-08 03:43:00,
2013-07-07 23:48:00,68.9,67.7,29.91,NNW,342,0.0,1.0,96,0.00,,---,0.07,VWS V14.01,2013-07-08 03:48:00,
2013-07-07 23:53:00,68.5,67.0,29.91,WNW,291,0.0,2.0,95,0.00,,---,0.07,VWS V14.01,2013-07-08 03:53:00,
2013-07-07 23:58:00,68.3,67.1,29.91,WNW,291,0.0,1.0,96,0.00,,---,0.07,VWS V14.01,2013-07-08 03:58:00,